sensor_id;sensor_type;location;lat;lon;timestamp;temperature;humidity
29777;DHT22;16677;52.224;7.484;2023-04-25T00:02:18;7.10;99.90
29777;DHT22;16677;52.224;7.484;2023-04-25T00:04:46;7.20;99.90
29777;DHT22;16677;52.224;7.484;2023-04-25T00:07:15;7.10;99.90
29777;DHT22;16677;52.224;7.484;2023-04-25T00:09:43;7.10;99.90
29777;DHT22;16677;52.224;7.484;2023-04-25T00:12:09;7.10;99.90
29777;DHT22;16677;52.224;7.484;2023-04-25T00:14:36;7.20;99.90
29777;DHT22;16677;52.224;7.484;2023-04-25T00:17:04;7.10;99.90
29777;DHT22;16677;52.224;7.484;2023-04-25T00:19:32;7.10;99.90
29777;DHT22;16677;52.224;7.484;2023-04-25T00:22:01;7.20;99.90
29777;DHT22;16677;52.224;7.484;2023-04-25T00:24:28;7.20;99.90
29777;DHT22;16677;52.224;7.484;2023-04-25T00:26:55;7.30;99.90
29777;DHT22;16677;52.224;7.484;2023-04-25T00:29:22;7.20;99.90
29777;DHT22;16677;52.224;7.484;2023-04-25T00:31:48;7.30;99.90
29777;DHT22;16677;52.224;7.484;2023-04-25T00:34:16;7.30;99.90
29777;DHT22;16677;52.224;7.484;2023-04-25T00:36:42;7.40;99.90
29777;DHT22;16677;52.224;7.484;2023-04-25T00:39:09;7.40;99.90
29777;DHT22;16677;52.224;7.484;2023-04-25T00:41:37;7.30;99.90
29777;DHT22;16677;52.224;7.484;2023-04-25T00:44:04;7.50;99.90
29777;DHT22;16677;52.224;7.484;2023-04-25T00:46:31;7.50;99.90
29777;DHT22;16677;52.224;7.484;2023-04-25T00:48:59;7.20;66.30
29777;DHT22;16677;52.224;7.484;2023-04-25T00:51:26;7.20;99.90
29777;DHT22;16677;52.224;7.484;2023-04-25T00:53:53;7.30;1.00
29777;DHT22;16677;52.224;7.484;2023-04-25T00:56:20;7.30;1.00
29777;DHT22;16677;52.224;7.484;2023-04-25T00:58:48;7.30;99.90
29777;DHT22;16677;52.224;7.484;2023-04-25T01:01:15;7.20;99.90
29777;DHT22;16677;52.224;7.484;2023-04-25T01:03:43;7.30;99.90
29777;DHT22;16677;52.224;7.484;2023-04-25T01:06:11;7.30;99.90
29777;DHT22;16677;52.224;7.484;2023-04-25T01:08:39;7.40;99.90
29777;DHT22;16677;52.224;7.484;2023-04-25T01:11:06;7.30;99.90
29777;DHT22;16677;52.224;7.484;2023-04-25T01:13:33;7.30;99.90
29777;DHT22;16677;52.224;7.484;2023-04-25T01:16:01;7.20;99.90
29777;DHT22;16677;52.224;7.484;2023-04-25T01:18:29;7.20;1.00
29777;DHT22;16677;52.224;7.484;2023-04-25T01:20:56;7.10;1.00
29777;DHT22;16677;52.224;7.484;2023-04-25T01:23:31;7.20;1.00
29777;DHT22;16677;52.224;7.484;2023-04-25T01:25:59;7.20;1.00
29777;DHT22;16677;52.224;7.484;2023-04-25T01:28:27;7.10;1.00
29777;DHT22;16677;52.224;7.484;2023-04-25T01:30:54;7.10;1.00
29777;DHT22;16677;52.224;7.484;2023-04-25T01:33:21;7.10;1.00
29777;DHT22;16677;52.224;7.484;2023-04-25T01:35:49;7.00;1.00
29777;DHT22;16677;52.224;7.484;2023-04-25T01:38:16;7.00;1.00
29777;DHT22;16677;52.224;7.484;2023-04-25T01:40:43;7.00;1.00
29777;DHT22;16677;52.224;7.484;2023-04-25T01:43:11;6.90;1.00
29777;DHT22;16677;52.224;7.484;2023-04-25T01:45:39;6.90;6.90
29777;DHT22;16677;52.224;7.484;2023-04-25T01:48:08;6.80;1.00
29777;DHT22;16677;52.224;7.484;2023-04-25T01:50:37;6.80;1.00
29777;DHT22;16677;52.224;7.484;2023-04-25T01:53:04;6.70;3.40
29777;DHT22;16677;52.224;7.484;2023-04-25T01:55:32;6.70;76.90
29777;DHT22;16677;52.224;7.484;2023-04-25T01:57:59;6.60;99.90
29777;DHT22;16677;52.224;7.484;2023-04-25T02:00:27;6.70;99.90
29777;DHT22;16677;52.224;7.484;2023-04-25T02:02:57;6.70;99.90
29777;DHT22;16677;52.224;7.484;2023-04-25T02:05:25;6.60;99.90
29777;DHT22;16677;52.224;7.484;2023-04-25T02:07:52;6.60;99.90
29777;DHT22;16677;52.224;7.484;2023-04-25T02:10:19;6.60;99.90
29777;DHT22;16677;52.224;7.484;2023-04-25T02:12:46;6.60;99.90
29777;DHT22;16677;52.224;7.484;2023-04-25T02:15:13;6.60;99.90
29777;DHT22;16677;52.224;7.484;2023-04-25T02:17:40;6.60;99.90
29777;DHT22;16677;52.224;7.484;2023-04-25T02:20:07;6.60;99.90
29777;DHT22;16677;52.224;7.484;2023-04-25T02:22:34;6.50;99.90
29777;DHT22;16677;52.224;7.484;2023-04-25T02:25:02;6.50;99.90
29777;DHT22;16677;52.224;7.484;2023-04-25T02:27:31;6.50;99.90
29777;DHT22;16677;52.224;7.484;2023-04-25T02:29:58;6.50;99.90
29777;DHT22;16677;52.224;7.484;2023-04-25T02:32:25;6.50;99.90
29777;DHT22;16677;52.224;7.484;2023-04-25T02:34:52;6.50;72.10
29777;DHT22;16677;52.224;7.484;2023-04-25T02:37:19;6.50;94.10
29777;DHT22;16677;52.224;7.484;2023-04-25T02:39:46;6.50;39.40
29777;DHT22;16677;52.224;7.484;2023-04-25T02:42:13;6.50;50.30
29777;DHT22;16677;52.224;7.484;2023-04-25T02:44:40;6.50;51.80
29777;DHT22;16677;52.224;7.484;2023-04-25T02:47:07;6.40;1.00
29777;DHT22;16677;52.224;7.484;2023-04-25T02:49:34;6.50;13.60
29777;DHT22;16677;52.224;7.484;2023-04-25T02:52:00;6.40;8.60
29777;DHT22;16677;52.224;7.484;2023-04-25T02:54:27;6.40;19.20
29777;DHT22;16677;52.224;7.484;2023-04-25T02:56:54;6.40;22.70
29777;DHT22;16677;52.224;7.484;2023-04-25T02:59:21;6.40;31.30
29777;DHT22;16677;52.224;7.484;2023-04-25T03:01:48;6.30;52.70
29777;DHT22;16677;52.224;7.484;2023-04-25T03:04:15;6.30;17.50
29777;DHT22;16677;52.224;7.484;2023-04-25T03:06:42;6.40;37.50
29777;DHT22;16677;52.224;7.484;2023-04-25T03:09:09;6.30;28.90
29777;DHT22;16677;52.224;7.484;2023-04-25T03:11:37;6.30;55.90
29777;DHT22;16677;52.224;7.484;2023-04-25T03:14:04;6.40;51.20
29777;DHT22;16677;52.224;7.484;2023-04-25T03:16:31;6.40;32.10
29777;DHT22;16677;52.224;7.484;2023-04-25T03:18:58;6.30;17.10
29777;DHT22;16677;52.224;7.484;2023-04-25T03:21:25;6.30;21.70
29777;DHT22;16677;52.224;7.484;2023-04-25T03:23:52;6.30;1.00
29777;DHT22;16677;52.224;7.484;2023-04-25T03:26:20;6.30;24.90
29777;DHT22;16677;52.224;7.484;2023-04-25T03:28:47;6.30;19.50
29777;DHT22;16677;52.224;7.484;2023-04-25T03:31:14;6.30;1.00
29777;DHT22;16677;52.224;7.484;2023-04-25T03:33:41;6.30;1.00
29777;DHT22;16677;52.224;7.484;2023-04-25T03:36:08;6.30;1.00
29777;DHT22;16677;52.224;7.484;2023-04-25T03:38:36;6.30;1.00
29777;DHT22;16677;52.224;7.484;2023-04-25T03:41:03;6.20;1.00
29777;DHT22;16677;52.224;7.484;2023-04-25T03:43:30;6.20;1.00
29777;DHT22;16677;52.224;7.484;2023-04-25T03:45:57;6.20;1.00
29777;DHT22;16677;52.224;7.484;2023-04-25T03:48:25;6.20;1.00
29777;DHT22;16677;52.224;7.484;2023-04-25T03:50:52;6.40;1.00
29777;DHT22;16677;52.224;7.484;2023-04-25T03:53:20;6.20;1.00
29777;DHT22;16677;52.224;7.484;2023-04-25T03:55:47;6.20;1.00
29777;DHT22;16677;52.224;7.484;2023-04-25T03:58:14;6.10;1.00
29777;DHT22;16677;52.224;7.484;2023-04-25T04:00:41;6.20;1.00
29777;DHT22;16677;52.224;7.484;2023-04-25T04:03:08;6.20;1.00
29777;DHT22;16677;52.224;7.484;2023-04-25T04:05:35;6.10;1.00
29777;DHT22;16677;52.224;7.484;2023-04-25T04:08:03;6.10;1.00
29777;DHT22;16677;52.224;7.484;2023-04-25T04:10:31;6.20;1.00
29777;DHT22;16677;52.224;7.484;2023-04-25T04:12:57;6.10;1.00
29777;DHT22;16677;52.224;7.484;2023-04-25T04:15:24;6.20;1.00
29777;DHT22;16677;52.224;7.484;2023-04-25T04:17:51;6.10;1.00
29777;DHT22;16677;52.224;7.484;2023-04-25T04:20:18;6.10;1.00
29777;DHT22;16677;52.224;7.484;2023-04-25T04:22:46;6.10;1.00
29777;DHT22;16677;52.224;7.484;2023-04-25T04:25:13;6.10;1.00
29777;DHT22;16677;52.224;7.484;2023-04-25T04:27:40;6.10;1.00
29777;DHT22;16677;52.224;7.484;2023-04-25T04:30:07;6.10;1.00
29777;DHT22;16677;52.224;7.484;2023-04-25T04:32:34;6.10;1.00
29777;DHT22;16677;52.224;7.484;2023-04-25T04:35:04;6.10;1.00
29777;DHT22;16677;52.224;7.484;2023-04-25T04:37:33;6.10;1.00
29777;DHT22;16677;52.224;7.484;2023-04-25T04:40:00;6.10;1.00
29777;DHT22;16677;52.224;7.484;2023-04-25T04:42:32;6.10;1.00
29777;DHT22;16677;52.224;7.484;2023-04-25T04:44:59;6.00;1.00
29777;DHT22;16677;52.224;7.484;2023-04-25T04:47:28;6.00;1.00
29777;DHT22;16677;52.224;7.484;2023-04-25T04:49:57;6.00;1.00
29777;DHT22;16677;52.224;7.484;2023-04-25T04:52:24;6.00;1.00
29777;DHT22;16677;52.224;7.484;2023-04-25T04:54:51;6.00;1.00
29777;DHT22;16677;52.224;7.484;2023-04-25T04:57:18;6.00;1.00
29777;DHT22;16677;52.224;7.484;2023-04-25T04:59:45;6.00;1.00
29777;DHT22;16677;52.224;7.484;2023-04-25T05:02:12;6.00;1.00
29777;DHT22;16677;52.224;7.484;2023-04-25T05:04:39;6.00;99.90
29777;DHT22;16677;52.224;7.484;2023-04-25T05:07:06;6.00;99.90
29777;DHT22;16677;52.224;7.484;2023-04-25T05:09:33;6.10;63.10
29777;DHT22;16677;52.224;7.484;2023-04-25T05:12:00;6.10;1.00
29777;DHT22;16677;52.224;7.484;2023-04-25T05:14:27;6.00;1.00
29777;DHT22;16677;52.224;7.484;2023-04-25T05:16:54;6.10;99.90
29777;DHT22;16677;52.224;7.484;2023-04-25T05:19:21;6.10;99.90
29777;DHT22;16677;52.224;7.484;2023-04-25T05:21:49;6.10;1.00
29777;DHT22;16677;52.224;7.484;2023-04-25T05:24:16;6.00;1.00
29777;DHT22;16677;52.224;7.484;2023-04-25T05:26:45;6.00;2.70
29777;DHT22;16677;52.224;7.484;2023-04-25T05:29:12;6.20;1.00
29777;DHT22;16677;52.224;7.484;2023-04-25T05:31:39;6.10;1.00
29777;DHT22;16677;52.224;7.484;2023-04-25T05:34:06;6.10;1.00
29777;DHT22;16677;52.224;7.484;2023-04-25T05:36:33;6.20;1.00
29777;DHT22;16677;52.224;7.484;2023-04-25T05:39:00;6.20;1.00
29777;DHT22;16677;52.224;7.484;2023-04-25T05:41:27;6.20;99.90
29777;DHT22;16677;52.224;7.484;2023-04-25T05:43:54;6.20;1.00
29777;DHT22;16677;52.224;7.484;2023-04-25T05:46:23;6.20;1.00
29777;DHT22;16677;52.224;7.484;2023-04-25T05:48:50;6.20;99.90
29777;DHT22;16677;52.224;7.484;2023-04-25T05:51:17;6.20;99.90
29777;DHT22;16677;52.224;7.484;2023-04-25T05:53:44;6.20;99.90
29777;DHT22;16677;52.224;7.484;2023-04-25T05:56:11;6.20;99.90
29777;DHT22;16677;52.224;7.484;2023-04-25T05:58:39;6.30;1.00
29777;DHT22;16677;52.224;7.484;2023-04-25T06:01:06;6.30;1.00
29777;DHT22;16677;52.224;7.484;2023-04-25T06:03:33;6.30;99.90
29777;DHT22;16677;52.224;7.484;2023-04-25T06:06:01;6.40;99.90
29777;DHT22;16677;52.224;7.484;2023-04-25T06:08:28;6.40;1.00
29777;DHT22;16677;52.224;7.484;2023-04-25T06:10:54;6.40;99.90
29777;DHT22;16677;52.224;7.484;2023-04-25T06:13:21;6.40;99.90
29777;DHT22;16677;52.224;7.484;2023-04-25T06:15:48;6.40;1.00
29777;DHT22;16677;52.224;7.484;2023-04-25T06:18:16;6.50;99.90
29777;DHT22;16677;52.224;7.484;2023-04-25T06:20:43;6.60;1.00
29777;DHT22;16677;52.224;7.484;2023-04-25T06:23:10;6.70;1.00
29777;DHT22;16677;52.224;7.484;2023-04-25T06:25:37;6.50;99.90
29777;DHT22;16677;52.224;7.484;2023-04-25T06:28:03;6.60;1.00
29777;DHT22;16677;52.224;7.484;2023-04-25T06:30:31;6.60;99.90
29777;DHT22;16677;52.224;7.484;2023-04-25T06:32:58;6.70;39.50
29777;DHT22;16677;52.224;7.484;2023-04-25T06:35:25;6.80;1.00
29777;DHT22;16677;52.224;7.484;2023-04-25T06:37:51;6.70;1.00
29777;DHT22;16677;52.224;7.484;2023-04-25T06:40:18;6.60;1.00
29777;DHT22;16677;52.224;7.484;2023-04-25T06:42:45;6.70;1.00
29777;DHT22;16677;52.224;7.484;2023-04-25T06:45:12;6.80;1.00
29777;DHT22;16677;52.224;7.484;2023-04-25T06:47:39;6.80;1.00
29777;DHT22;16677;52.224;7.484;2023-04-25T06:50:06;6.90;1.00
29777;DHT22;16677;52.224;7.484;2023-04-25T06:52:34;7.10;1.00
29777;DHT22;16677;52.224;7.484;2023-04-25T06:55:01;7.00;1.00
29777;DHT22;16677;52.224;7.484;2023-04-25T06:57:28;7.20;1.00
29777;DHT22;16677;52.224;7.484;2023-04-25T06:59:55;7.20;1.00
29777;DHT22;16677;52.224;7.484;2023-04-25T07:02:22;7.10;1.00
29777;DHT22;16677;52.224;7.484;2023-04-25T07:04:49;7.10;1.00
29777;DHT22;16677;52.224;7.484;2023-04-25T07:07:16;7.30;1.00
29777;DHT22;16677;52.224;7.484;2023-04-25T07:09:43;7.20;1.00
29777;DHT22;16677;52.224;7.484;2023-04-25T07:12:11;7.20;1.00
29777;DHT22;16677;52.224;7.484;2023-04-25T07:14:38;7.20;1.00
29777;DHT22;16677;52.224;7.484;2023-04-25T07:17:05;7.10;1.00
29777;DHT22;16677;52.224;7.484;2023-04-25T07:19:33;7.20;1.00
29777;DHT22;16677;52.224;7.484;2023-04-25T07:22:01;7.40;1.00
29777;DHT22;16677;52.224;7.484;2023-04-25T07:24:28;7.20;1.00
29777;DHT22;16677;52.224;7.484;2023-04-25T07:26:55;7.60;1.00
29777;DHT22;16677;52.224;7.484;2023-04-25T07:29:22;7.50;1.00
29777;DHT22;16677;52.224;7.484;2023-04-25T07:31:49;7.60;1.00
29777;DHT22;16677;52.224;7.484;2023-04-25T07:34:16;7.70;1.00
29777;DHT22;16677;52.224;7.484;2023-04-25T07:36:43;7.70;1.00
29777;DHT22;16677;52.224;7.484;2023-04-25T07:39:10;7.60;1.00
29777;DHT22;16677;52.224;7.484;2023-04-25T07:41:37;7.70;1.00
29777;DHT22;16677;52.224;7.484;2023-04-25T07:44:04;7.80;1.00
29777;DHT22;16677;52.224;7.484;2023-04-25T07:46:31;8.10;1.00
29777;DHT22;16677;52.224;7.484;2023-04-25T07:48:58;7.80;1.00
29777;DHT22;16677;52.224;7.484;2023-04-25T07:51:25;7.90;1.00
29777;DHT22;16677;52.224;7.484;2023-04-25T07:53:52;8.00;1.00
29777;DHT22;16677;52.224;7.484;2023-04-25T07:56:19;8.60;1.00
29777;DHT22;16677;52.224;7.484;2023-04-25T07:58:46;8.70;99.90
29777;DHT22;16677;52.224;7.484;2023-04-25T08:01:13;8.90;99.90
29777;DHT22;16677;52.224;7.484;2023-04-25T08:03:40;8.10;99.90
29777;DHT22;16677;52.224;7.484;2023-04-25T08:06:07;8.40;1.00
29777;DHT22;16677;52.224;7.484;2023-04-25T08:08:34;8.80;99.90
29777;DHT22;16677;52.224;7.484;2023-04-25T08:11:01;8.90;99.90
29777;DHT22;16677;52.224;7.484;2023-04-25T08:13:28;9.20;99.90
29777;DHT22;16677;52.224;7.484;2023-04-25T08:15:55;8.60;99.90
29777;DHT22;16677;52.224;7.484;2023-04-25T08:18:23;8.80;99.90
29777;DHT22;16677;52.224;7.484;2023-04-25T08:20:50;8.80;99.90
29777;DHT22;16677;52.224;7.484;2023-04-25T08:23:17;9.20;99.90
29777;DHT22;16677;52.224;7.484;2023-04-25T08:25:44;9.30;99.90
29777;DHT22;16677;52.224;7.484;2023-04-25T08:28:11;8.90;99.90
29777;DHT22;16677;52.224;7.484;2023-04-25T08:30:38;8.50;99.90
29777;DHT22;16677;52.224;7.484;2023-04-25T08:33:05;8.60;99.90
29777;DHT22;16677;52.224;7.484;2023-04-25T08:35:33;8.70;99.90
29777;DHT22;16677;52.224;7.484;2023-04-25T08:38:00;8.80;99.90
29777;DHT22;16677;52.224;7.484;2023-04-25T08:40:28;8.90;99.90
29777;DHT22;16677;52.224;7.484;2023-04-25T08:42:58;9.00;99.90
29777;DHT22;16677;52.224;7.484;2023-04-25T08:45:28;8.90;99.90
29777;DHT22;16677;52.224;7.484;2023-04-25T08:47:58;8.90;99.90
29777;DHT22;16677;52.224;7.484;2023-04-25T08:50:26;9.30;99.90
29777;DHT22;16677;52.224;7.484;2023-04-25T08:52:54;9.20;99.90
29777;DHT22;16677;52.224;7.484;2023-04-25T08:55:23;9.10;99.90
29777;DHT22;16677;52.224;7.484;2023-04-25T08:57:51;9.20;99.90
29777;DHT22;16677;52.224;7.484;2023-04-25T09:00:19;8.90;99.90
29777;DHT22;16677;52.224;7.484;2023-04-25T09:02:47;9.30;99.90
29777;DHT22;16677;52.224;7.484;2023-04-25T09:05:14;8.90;99.90
29777;DHT22;16677;52.224;7.484;2023-04-25T09:07:41;8.80;99.90
29777;DHT22;16677;52.224;7.484;2023-04-25T09:10:09;9.00;99.90
29777;DHT22;16677;52.224;7.484;2023-04-25T09:12:36;9.30;99.90
29777;DHT22;16677;52.224;7.484;2023-04-25T09:15:09;9.80;99.90
29777;DHT22;16677;52.224;7.484;2023-04-25T09:17:41;9.50;99.90
29777;DHT22;16677;52.224;7.484;2023-04-25T09:20:13;9.40;99.90
29777;DHT22;16677;52.224;7.484;2023-04-25T09:22:40;9.50;99.90
29777;DHT22;16677;52.224;7.484;2023-04-25T09:25:11;9.20;99.90
29777;DHT22;16677;52.224;7.484;2023-04-25T09:27:52;9.00;99.90
29777;DHT22;16677;52.224;7.484;2023-04-25T09:30:32;8.80;99.90
29777;DHT22;16677;52.224;7.484;2023-04-25T09:33:05;9.00;99.90
29777;DHT22;16677;52.224;7.484;2023-04-25T09:35:41;9.70;99.90
29777;DHT22;16677;52.224;7.484;2023-04-25T09:38:11;9.60;99.90
29777;DHT22;16677;52.224;7.484;2023-04-25T09:40:44;9.70;99.90
29777;DHT22;16677;52.224;7.484;2023-04-25T09:43:19;9.20;99.90
29777;DHT22;16677;52.224;7.484;2023-04-25T09:45:47;8.90;99.90
29777;DHT22;16677;52.224;7.484;2023-04-25T09:48:22;9.00;99.90
29777;DHT22;16677;52.224;7.484;2023-04-25T09:53:39;8.80;99.90
29777;DHT22;16677;52.224;7.484;2023-04-25T09:56:09;8.70;99.90
29777;DHT22;16677;52.224;7.484;2023-04-25T09:58:40;8.50;99.90
29777;DHT22;16677;52.224;7.484;2023-04-25T10:01:10;8.50;99.90
29777;DHT22;16677;52.224;7.484;2023-04-25T10:03:38;8.40;99.90
29777;DHT22;16677;52.224;7.484;2023-04-25T10:06:19;8.80;99.90
29777;DHT22;16677;52.224;7.484;2023-04-25T10:08:51;8.50;99.90
29777;DHT22;16677;52.224;7.484;2023-04-25T10:11:21;8.30;99.90
29777;DHT22;16677;52.224;7.484;2023-04-25T10:13:50;8.40;99.90
29777;DHT22;16677;52.224;7.484;2023-04-25T10:16:18;8.40;99.90
29777;DHT22;16677;52.224;7.484;2023-04-25T10:18:45;8.70;99.90
29777;DHT22;16677;52.224;7.484;2023-04-25T10:21:12;8.10;99.90
29777;DHT22;16677;52.224;7.484;2023-04-25T10:23:41;8.00;99.90
29777;DHT22;16677;52.224;7.484;2023-04-25T10:26:09;8.10;99.90
29777;DHT22;16677;52.224;7.484;2023-04-25T10:29:01;8.20;99.90
29777;DHT22;16677;52.224;7.484;2023-04-25T10:31:31;8.50;99.90
29777;DHT22;16677;52.224;7.484;2023-04-25T10:33:59;9.20;99.90
29777;DHT22;16677;52.224;7.484;2023-04-25T10:36:27;8.90;99.90
29777;DHT22;16677;52.224;7.484;2023-04-25T10:38:58;8.60;99.90
29777;DHT22;16677;52.224;7.484;2023-04-25T10:41:45;8.80;99.90
29777;DHT22;16677;52.224;7.484;2023-04-25T10:44:14;8.50;99.90
29777;DHT22;16677;52.224;7.484;2023-04-25T10:46:41;8.60;99.90
29777;DHT22;16677;52.224;7.484;2023-04-25T10:49:15;8.60;99.90
29777;DHT22;16677;52.224;7.484;2023-04-25T10:54:55;8.30;99.90
29777;DHT22;16677;52.224;7.484;2023-04-25T11:02:57;8.40;99.90
29777;DHT22;16677;52.224;7.484;2023-04-25T11:05:33;8.40;99.90
29777;DHT22;16677;52.224;7.484;2023-04-25T11:08:16;8.90;99.90
29777;DHT22;16677;52.224;7.484;2023-04-25T11:10:52;8.70;99.90
29777;DHT22;16677;52.224;7.484;2023-04-25T11:13:20;9.10;99.90
29777;DHT22;16677;52.224;7.484;2023-04-25T11:15:51;9.50;99.90
29777;DHT22;16677;52.224;7.484;2023-04-25T11:18:28;9.20;99.90
29777;DHT22;16677;52.224;7.484;2023-04-25T11:20:55;9.60;99.90
29777;DHT22;16677;52.224;7.484;2023-04-25T11:23:22;9.80;99.90
29777;DHT22;16677;52.224;7.484;2023-04-25T11:25:49;9.80;99.90
29777;DHT22;16677;52.224;7.484;2023-04-25T11:28:20;9.70;99.90
29777;DHT22;16677;52.224;7.484;2023-04-25T11:30:49;9.40;99.90
29777;DHT22;16677;52.224;7.484;2023-04-25T11:33:25;9.60;99.90
29777;DHT22;16677;52.224;7.484;2023-04-25T11:35:54;10.10;99.90
29777;DHT22;16677;52.224;7.484;2023-04-25T11:38:24;10.00;99.90
29777;DHT22;16677;52.224;7.484;2023-04-25T11:40:54;10.50;99.90
29777;DHT22;16677;52.224;7.484;2023-04-25T11:43:22;10.30;99.90
29777;DHT22;16677;52.224;7.484;2023-04-25T11:45:49;10.40;99.90
29777;DHT22;16677;52.224;7.484;2023-04-25T11:48:18;10.20;99.90
29777;DHT22;16677;52.224;7.484;2023-04-25T11:50:46;10.00;99.90
29777;DHT22;16677;52.224;7.484;2023-04-25T11:53:13;10.80;99.90
29777;DHT22;16677;52.224;7.484;2023-04-25T11:55:40;10.50;99.90
29777;DHT22;16677;52.224;7.484;2023-04-25T11:58:07;10.30;99.90
29777;DHT22;16677;52.224;7.484;2023-04-25T12:00:35;10.30;99.90
29777;DHT22;16677;52.224;7.484;2023-04-25T12:03:02;9.70;99.90
29777;DHT22;16677;52.224;7.484;2023-04-25T12:05:30;9.70;99.90
29777;DHT22;16677;52.224;7.484;2023-04-25T12:08:10;9.80;99.90
29777;DHT22;16677;52.224;7.484;2023-04-25T12:10:41;9.70;99.90
29777;DHT22;16677;52.224;7.484;2023-04-25T12:15:49;10.00;99.90
29777;DHT22;16677;52.224;7.484;2023-04-25T12:18:20;9.60;99.90
29777;DHT22;16677;52.224;7.484;2023-04-25T12:20:48;10.30;99.90
29777;DHT22;16677;52.224;7.484;2023-04-25T12:23:15;10.50;99.90
29777;DHT22;16677;52.224;7.484;2023-04-25T12:25:42;10.70;99.90
29777;DHT22;16677;52.224;7.484;2023-04-25T12:28:15;11.10;99.90
29777;DHT22;16677;52.224;7.484;2023-04-25T12:33:32;10.70;99.90
29777;DHT22;16677;52.224;7.484;2023-04-25T12:36:01;10.50;99.90
29777;DHT22;16677;52.224;7.484;2023-04-25T12:38:38;9.70;99.90
29777;DHT22;16677;52.224;7.484;2023-04-25T12:41:06;8.90;99.90
29777;DHT22;16677;52.224;7.484;2023-04-25T12:43:34;8.90;99.90
29777;DHT22;16677;52.224;7.484;2023-04-25T12:46:01;8.50;1.00
29777;DHT22;16677;52.224;7.484;2023-04-25T12:48:28;8.10;1.00
29777;DHT22;16677;52.224;7.484;2023-04-25T12:50:55;8.10;1.00
29777;DHT22;16677;52.224;7.484;2023-04-25T12:53:22;8.10;1.00
29777;DHT22;16677;52.224;7.484;2023-04-25T12:55:53;7.80;91.50
29777;DHT22;16677;52.224;7.484;2023-04-25T12:58:20;7.40;1.00
29777;DHT22;16677;52.224;7.484;2023-04-25T13:00:47;7.50;99.90
29777;DHT22;16677;52.224;7.484;2023-04-25T13:03:15;7.90;99.90
29777;DHT22;16677;52.224;7.484;2023-04-25T13:05:42;7.90;99.90
29777;DHT22;16677;52.224;7.484;2023-04-25T13:08:09;8.00;1.00
29777;DHT22;16677;52.224;7.484;2023-04-25T13:10:36;8.10;1.00
29777;DHT22;16677;52.224;7.484;2023-04-25T13:13:04;8.30;1.00
29777;DHT22;16677;52.224;7.484;2023-04-25T13:15:31;8.50;1.00
29777;DHT22;16677;52.224;7.484;2023-04-25T13:17:58;8.60;1.00
29777;DHT22;16677;52.224;7.484;2023-04-25T13:20:26;8.80;1.00
29777;DHT22;16677;52.224;7.484;2023-04-25T13:22:53;8.90;1.00
29777;DHT22;16677;52.224;7.484;2023-04-25T13:25:20;9.30;1.00
29777;DHT22;16677;52.224;7.484;2023-04-25T13:27:48;9.20;1.00
29777;DHT22;16677;52.224;7.484;2023-04-25T13:30:15;9.70;1.00
29777;DHT22;16677;52.224;7.484;2023-04-25T13:32:42;9.60;1.00
29777;DHT22;16677;52.224;7.484;2023-04-25T13:35:10;9.40;1.00
29777;DHT22;16677;52.224;7.484;2023-04-25T13:37:38;9.50;99.90
29777;DHT22;16677;52.224;7.484;2023-04-25T13:40:07;9.80;1.00
29777;DHT22;16677;52.224;7.484;2023-04-25T13:42:36;10.30;99.90
29777;DHT22;16677;52.224;7.484;2023-04-25T13:45:04;10.30;99.90
29777;DHT22;16677;52.224;7.484;2023-04-25T13:47:31;10.10;99.90
29777;DHT22;16677;52.224;7.484;2023-04-25T13:49:58;9.50;99.90
29777;DHT22;16677;52.224;7.484;2023-04-25T13:52:26;10.00;99.90
29777;DHT22;16677;52.224;7.484;2023-04-25T13:54:53;10.00;99.90
29777;DHT22;16677;52.224;7.484;2023-04-25T13:57:20;10.00;99.90
29777;DHT22;16677;52.224;7.484;2023-04-25T13:59:47;9.80;99.90
29777;DHT22;16677;52.224;7.484;2023-04-25T14:02:14;10.10;99.90
29777;DHT22;16677;52.224;7.484;2023-04-25T14:04:42;10.50;99.90
29777;DHT22;16677;52.224;7.484;2023-04-25T14:07:09;10.40;99.90
29777;DHT22;16677;52.224;7.484;2023-04-25T14:09:37;10.10;99.90
29777;DHT22;16677;52.224;7.484;2023-04-25T14:12:04;10.20;99.90
29777;DHT22;16677;52.224;7.484;2023-04-25T14:14:32;10.10;99.90
29777;DHT22;16677;52.224;7.484;2023-04-25T14:16:59;9.80;99.90
29777;DHT22;16677;52.224;7.484;2023-04-25T14:19:26;9.50;99.90
29777;DHT22;16677;52.224;7.484;2023-04-25T14:21:56;9.30;99.90
29777;DHT22;16677;52.224;7.484;2023-04-25T14:24:23;9.20;99.90
29777;DHT22;16677;52.224;7.484;2023-04-25T14:26:50;8.90;99.90
29777;DHT22;16677;52.224;7.484;2023-04-25T14:29:17;8.20;1.00
29777;DHT22;16677;52.224;7.484;2023-04-25T14:31:44;7.90;1.00
29777;DHT22;16677;52.224;7.484;2023-04-25T14:34:11;8.20;1.00
29777;DHT22;16677;52.224;7.484;2023-04-25T14:36:38;8.10;1.00
29777;DHT22;16677;52.224;7.484;2023-04-25T14:39:06;8.40;1.00
29777;DHT22;16677;52.224;7.484;2023-04-25T14:41:33;8.70;1.00
29777;DHT22;16677;52.224;7.484;2023-04-25T14:44:00;8.50;1.00
29777;DHT22;16677;52.224;7.484;2023-04-25T14:46:27;8.00;1.00
29777;DHT22;16677;52.224;7.484;2023-04-25T14:48:55;8.00;1.00
29777;DHT22;16677;52.224;7.484;2023-04-25T14:51:22;8.20;1.00
29777;DHT22;16677;52.224;7.484;2023-04-25T14:53:49;8.30;1.00
29777;DHT22;16677;52.224;7.484;2023-04-25T14:56:17;8.10;1.00
29777;DHT22;16677;52.224;7.484;2023-04-25T14:58:45;8.40;1.00
29777;DHT22;16677;52.224;7.484;2023-04-25T15:01:12;8.90;1.00
29777;DHT22;16677;52.224;7.484;2023-04-25T15:03:40;9.10;1.00
29777;DHT22;16677;52.224;7.484;2023-04-25T15:06:07;9.80;1.00
29777;DHT22;16677;52.224;7.484;2023-04-25T15:08:34;9.50;99.90
29777;DHT22;16677;52.224;7.484;2023-04-25T15:11:02;9.80;99.90
29777;DHT22;16677;52.224;7.484;2023-04-25T15:13:29;10.10;99.90
29777;DHT22;16677;52.224;7.484;2023-04-25T15:15:56;10.50;99.90
29777;DHT22;16677;52.224;7.484;2023-04-25T15:18:23;10.40;99.90
29777;DHT22;16677;52.224;7.484;2023-04-25T15:20:50;10.60;99.90
29777;DHT22;16677;52.224;7.484;2023-04-25T15:23:18;10.60;99.90
29777;DHT22;16677;52.224;7.484;2023-04-25T15:25:46;10.30;99.90
29777;DHT22;16677;52.224;7.484;2023-04-25T15:28:13;9.90;99.90
29777;DHT22;16677;52.224;7.484;2023-04-25T15:30:44;10.30;99.90
29777;DHT22;16677;52.224;7.484;2023-04-25T15:33:11;9.90;99.90
29777;DHT22;16677;52.224;7.484;2023-04-25T15:35:39;9.70;99.90
29777;DHT22;16677;52.224;7.484;2023-04-25T15:38:06;9.80;99.90
29777;DHT22;16677;52.224;7.484;2023-04-25T15:40:34;10.00;99.90
29777;DHT22;16677;52.224;7.484;2023-04-25T15:43:01;9.90;99.90
29777;DHT22;16677;52.224;7.484;2023-04-25T15:45:28;9.60;99.90
29777;DHT22;16677;52.224;7.484;2023-04-25T15:47:57;9.30;99.90
29777;DHT22;16677;52.224;7.484;2023-04-25T15:50:24;9.40;99.90
29777;DHT22;16677;52.224;7.484;2023-04-25T15:52:51;9.50;99.90
29777;DHT22;16677;52.224;7.484;2023-04-25T15:55:18;9.70;99.90
29777;DHT22;16677;52.224;7.484;2023-04-25T15:57:48;9.50;99.90
29777;DHT22;16677;52.224;7.484;2023-04-25T16:00:16;9.60;99.90
29777;DHT22;16677;52.224;7.484;2023-04-25T16:02:45;9.70;99.90
29777;DHT22;16677;52.224;7.484;2023-04-25T16:05:13;9.60;99.90
29777;DHT22;16677;52.224;7.484;2023-04-25T16:07:41;9.60;99.90
29777;DHT22;16677;52.224;7.484;2023-04-25T16:10:09;9.60;99.90
29777;DHT22;16677;52.224;7.484;2023-04-25T16:12:37;9.70;99.90